Inyati Airport


Codes: FVYT/
Name: Inyati Airport
City: Inyati
Country: Zimbabwe
Elevation: 4400 ft.

Photos at Inyati Airport


   Photos courtesy of SpottingLog. You can add your own sightings and photos by signing up for a free trial today.



No photos found.

Weather at Inyati Airport


Time (UTC)DescriptionTempratureWindCloud coverageVisibilityPressureHumidity
21-Feb-2024 03:00Clear Sky15°C7 mph, E0%10000m1015hPa88%
21-Feb-2024 06:00Clear Sky20°C9 mph, E0%10000m1015hPa60%
21-Feb-2024 09:00Clear Sky31°C9 mph, E0%10000m1012hPa19%
21-Feb-2024 12:00Clear Sky33°C11 mph, SE0%10000m1009hPa16%
21-Feb-2024 15:00Clear Sky31°C11 mph, SE2%10000m1008hPa19%
21-Feb-2024 18:00Clear Sky22°C7 mph, E1%10000m1011hPa37%
21-Feb-2024 21:00Clear Sky20°C9 mph, E0%10000m1013hPa45%
22-Feb-2024 00:00Clear Sky18°C7 mph, NE1%10000m1011hPa53%
22-Feb-2024 03:00Clear Sky17°C7 mph, NE0%10000m1012hPa54%
22-Feb-2024 06:00Clear Sky23°C7 mph, NE1%10000m1013hPa39%
22-Feb-2024 09:00Clear Sky31°C9 mph, E1%10000m1010hPa24%
22-Feb-2024 12:00Few Clouds35°C13 mph, SE12%10000m1007hPa18%
22-Feb-2024 15:00Clear Sky32°C13 mph, SE10%10000m1007hPa22%
22-Feb-2024 18:00Clear Sky23°C7 mph, E5%10000m1010hPa37%
22-Feb-2024 21:00Clear Sky21°C9 mph, E2%10000m1012hPa40%
23-Feb-2024 00:00Clear Sky20°C11 mph, E3%10000m1011hPa47%
23-Feb-2024 03:00Clear Sky19°C11 mph, E5%10000m1013hPa53%
23-Feb-2024 06:00Clear Sky23°C9 mph, NE3%10000m1014hPa45%
23-Feb-2024 09:00Clear Sky31°C7 mph, NE0%10000m1012hPa26%
23-Feb-2024 12:00Clear Sky35°C9 mph, NE0%10000m1007hPa18%
23-Feb-2024 15:00Clear Sky33°C13 mph, SE0%10000m1007hPa20%
23-Feb-2024 18:00Clear Sky24°C9 mph, SE0%10000m1010hPa33%
23-Feb-2024 21:00Clear Sky23°C11 mph, E0%10000m1012hPa33%
24-Feb-2024 00:00Clear Sky20°C9 mph, E0%10000m1012hPa41%
24-Feb-2024 03:00Clear Sky16°C7 mph, NE3%10000m1015hPa51%
24-Feb-2024 06:00Clear Sky23°C9 mph, NE2%10000m1015hPa45%
24-Feb-2024 09:00Clear Sky32°C4 mph, N0%10000m1013hPa27%
24-Feb-2024 12:00Clear Sky36°C4 mph, SE2%10000m1009hPa20%
24-Feb-2024 15:00Clear Sky34°C9 mph, SE5%10000m1007hPa21%
24-Feb-2024 18:00Few Clouds25°C9 mph, SE14%10000m1010hPa34%
24-Feb-2024 21:00Clear Sky23°C9 mph, E1%10000m1012hPa30%
25-Feb-2024 00:00Clear Sky20°C9 mph, NE1%10000m1013hPa37%
25-Feb-2024 03:00Clear Sky18°C7 mph, NE5%10000m1014hPa62%
25-Feb-2024 06:00Clear Sky25°C7 mph, NE3%10000m1014hPa48%
25-Feb-2024 09:00Few Clouds34°C2 mph, N17%10000m1012hPa26%
25-Feb-2024 12:00Scattered Clouds34°C7 mph, SE27%10000m1008hPa22%
25-Feb-2024 15:00Overcast Clouds33°C4 mph, SE93%10000m1007hPa22%
25-Feb-2024 18:00Broken Clouds25°C7 mph, SE68%10000m1010hPa37%
25-Feb-2024 21:00Clear Sky25°C11 mph, E5%10000m1012hPa33%
26-Feb-2024 00:00Few Clouds24°C13 mph, E21%10000m1012hPa41%